Time;durP1;ratioP1;P1;durP2;ratioP2;P2;SDS_P1;SDS_P2;PMS_P1;PMS_P2;Temp;Humidity;BMP_temperature;BMP_pressure;BME280_temperature;BME280_humidity;BME280_pressure;Samples;Min_cycle;Max_cycle;Signal;HPM_P1;HPM_P2
2022/01/16 00:00:40;;;;;;;549.13;40.03;;;-0.60;99.90;;;;;;4940695;29;20073;-84
2022/01/16 00:05:55;;;;;;;388.48;33.72;;;-0.80;99.90;;;;;;4942241;29;20023;-84
2022/01/16 00:08:21;;;;;;;583.55;41.78;;;-0.80;99.90;;;;;;4940987;29;20107;-83
2022/01/16 00:10:47;;;;;;;354.65;38.85;;;-0.90;99.90;;;;;;4939868;29;20039;-83
2022/01/16 00:13:13;;;;;;;331.25;34.17;;;-0.90;99.90;;;;;;4924083;29;20027;-83
2022/01/16 00:15:44;;;;;;;510.33;39.42;;;-1.00;99.90;;;;;;4942090;29;20035;-83
2022/01/16 00:18:25;;;;;;;212.43;27.45;;;-0.90;99.90;;;;;;4942024;29;20031;-83
2022/01/16 00:20:51;;;;;;;;;;;-0.90;99.90;;;;;;4941886;29;20063;-83
2022/01/16 00:23:26;;;;;;;463.80;35.22;;;-0.90;99.90;;;;;;4941751;29;19911;-85
2022/01/16 00:25:58;;;;;;;192.35;24.60;;;-0.90;99.90;;;;;;4941634;29;20037;-85
2022/01/16 00:28:24;;;;;;;225.77;30.30;;;-1.00;99.90;;;;;;4946927;28;20020;-88
2022/01/16 00:30:51;;;;;;;516.60;38.03;;;-0.90;99.90;;;;;;4947886;29;20090;-83
2022/01/16 00:33:18;;;;;;;602.50;42.15;;;-1.00;99.90;;;;;;4940327;29;20388;-84
2022/01/16 00:35:44;;;;;;;400.05;32.35;;;-1.00;99.90;;;;;;4940454;29;20039;-85
2022/01/16 00:38:10;;;;;;;463.95;35.72;;;-1.00;99.90;;;;;;4940682;29;20126;-85
2022/01/16 00:40:36;;;;;;;193.27;25.52;;;-1.00;99.90;;;;;;4945944;29;20126;-85
2022/01/16 00:43:03;;;;;;;457.80;37.30;;;-1.00;99.90;;;;;;4949152;29;20062;-86
2022/01/16 00:45:29;;;;;;;691.92;47.55;;;-1.10;99.90;;;;;;4954476;29;20031;-84
2022/01/16 00:47:55;;;;;;;526.33;40.78;;;-1.00;99.90;;;;;;4944846;29;20068;-85
2022/01/16 00:50:21;;;;;;;366.80;39.85;;;-1.00;99.90;;;;;;4944589;29;20035;-86
2022/01/16 00:52:47;;;;;;;673.08;41.03;;;-0.90;99.90;;;;;;4945181;29;20030;-84
2022/01/16 00:55:12;;;;;;;348.95;33.10;;;-0.90;99.90;;;;;;4944400;29;20118;-86
2022/01/16 00:57:38;;;;;;;179.43;29.73;;;-0.90;99.90;;;;;;4962637;28;20074;-86
2022/01/16 01:00:05;;;;;;;288.80;31.60;;;-0.80;99.90;;;;;;4943610;29;20047;-85
2022/01/16 01:02:31;;;;;;;150.27;25.02;;;-0.70;99.90;;;;;;4941383;29;20066;-85
2022/01/16 01:04:57;;;;;;;108.30;23.73;;;-0.70;99.90;;;;;;4941810;29;20082;-85
2022/01/16 01:07:22;;;;;;;482.60;38.00;;;-0.80;99.90;;;;;;4943347;29;20117;-86
2022/01/16 01:09:48;;;;;;;258.25;30.98;;;-0.70;99.90;;;;;;4942248;29;20129;-84
2022/01/16 01:12:25;;;;;;;485.52;42.97;;;-0.80;99.90;;;;;;4944624;29;20117;-87
2022/01/16 01:15:10;;;;;;;799.50;55.05;;;-0.90;99.90;;;;;;4944170;29;20035;-84
2022/01/16 01:17:46;;;;;;;699.10;52.28;;;-0.90;99.90;;;;;;4944265;29;20039;-85
2022/01/16 01:20:16;;;;;;;243.15;31.17;;;-0.90;99.90;;;;;;4943619;29;20042;-85
2022/01/16 01:22:44;;;;;;;234.40;30.23;;;-0.90;99.90;;;;;;4943747;29;20609;-84
2022/01/16 01:25:14;;;;;;;452.58;34.53;;;-0.90;99.90;;;;;;4943851;29;20026;-84
2022/01/16 01:27:44;;;;;;;677.50;45.75;;;-0.80;99.90;;;;;;4928956;29;20091;-85
2022/01/16 01:30:16;;;;;;;899.70;59.53;;;-0.80;99.90;;;;;;4944360;29;20034;-84
2022/01/16 01:32:46;;;;;;;769.65;51.85;;;-0.80;99.90;;;;;;4943783;29;20079;-85
2022/01/16 01:35:14;;;;;;;739.63;49.42;;;-0.80;99.90;;;;;;4943826;29;20035;-85
2022/01/16 01:37:41;;;;;;;363.50;29.17;;;-0.90;99.90;;;;;;4942296;29;20023;-84
2022/01/16 01:40:10;;;;;;;762.17;46.90;;;-0.90;99.90;;;;;;4945747;29;20039;-86
2022/01/16 01:42:44;;;;;;;662.92;48.67;;;-0.90;99.90;;;;;;4944206;29;20031;-85
2022/01/16 01:53:24;;;;;;;924.78;52.80;;;-0.80;99.90;;;;;;4942908;29;20408;-85
2022/01/16 01:55:50;;;;;;;764.33;48.05;;;-0.80;99.90;;;;;;4960362;29;20042;-85
2022/01/16 01:58:16;;;;;;;988.03;56.92;;;-0.80;99.90;;;;;;4942555;29;20404;-85
2022/01/16 02:00:42;;;;;;;742.70;52.75;;;-0.70;99.90;;;;;;4943902;29;20035;-84
2022/01/16 02:05:46;;;;;;;769.10;50.33;;;-0.70;99.90;;;;;;4943174;29;20046;-84
2022/01/16 02:08:12;;;;;;;804.58;50.00;;;-0.70;99.90;;;;;;4945281;29;20035;-86
2022/01/16 02:10:40;;;;;;;808.95;49.30;;;-0.90;99.90;;;;;;4943713;29;20121;-85
2022/01/16 02:13:09;;;;;;;310.83;31.23;;;-1.00;99.90;;;;;;4943206;29;20572;-86
2022/01/16 02:34:40;;;;;;;699.17;48.53;;;-0.90;99.90;;;;;;4943223;29;20039;-85
2022/01/16 02:37:10;;;;;;;877.20;57.90;;;-0.90;99.90;;;;;;4944632;29;20050;-85
2022/01/16 02:39:42;;;;;;;1036.25;62.08;;;-0.90;99.90;;;;;;4944251;29;20031;-85
2022/01/16 02:42:11;;;;;;;816.30;54.05;;;-1.00;99.90;;;;;;4944021;29;20031;-84
2022/01/16 02:44:46;;;;;;;572.38;48.58;;;-1.00;99.90;;;;;;4944079;29;20041;-85
2022/01/16 02:47:17;;;;;;;378.58;38.78;;;-0.90;99.90;;;;;;4944478;29;20035;-83
2022/01/16 02:49:47;;;;;;;543.33;40.90;;;-0.80;99.90;;;;;;4960371;29;20046;-84
2022/01/16 02:52:15;;;;;;;737.65;61.10;;;-0.80;99.90;;;;;;4943573;29;20473;-85
2022/01/16 02:54:44;;;;;;;814.88;65.78;;;-0.90;99.90;;;;;;4943477;29;20035;-85
2022/01/16 02:57:13;;;;;;;629.53;54.22;;;-0.90;99.90;;;;;;4943395;29;20049;-84
2022/01/16 02:59:44;;;;;;;475.23;47.40;;;-0.90;99.90;;;;;;4927041;29;20384;-85
2022/01/16 03:02:09;;;;;;;298.48;36.22;;;-0.90;99.90;;;;;;4942014;29;20053;-85
2022/01/16 03:04:35;;;;;;;819.35;62.60;;;-0.90;99.90;;;;;;4941398;29;20023;-84
2022/01/16 03:07:04;;;;;;;480.20;48.10;;;-0.90;99.90;;;;;;4943057;29;20031;-85
2022/01/16 03:09:48;;;;;;;679.67;60.92;;;-0.90;99.90;;;;;;4942872;29;20468;-84
2022/01/16 03:12:13;;;;;;;528.45;47.83;;;-0.90;99.90;;;;;;4942713;29;20031;-86
2022/01/16 03:14:39;;;;;;;807.28;59.85;;;-0.90;99.90;;;;;;4946602;29;20042;-85
2022/01/16 03:17:06;;;;;;;793.88;58.55;;;-0.90;99.90;;;;;;4972283;29;20023;-84
2022/01/16 03:22:16;;;;;;;908.10;69.32;;;-0.90;99.90;;;;;;4942858;29;20436;-86
2022/01/16 03:24:44;;;;;;;573.22;51.38;;;-0.90;99.90;;;;;;4941866;29;20031;-84
2022/01/16 03:27:14;;;;;;;886.58;63.33;;;-0.90;99.90;;;;;;4942170;29;20015;-84
2022/01/16 03:29:42;;;;;;;665.97;54.40;;;-0.90;99.90;;;;;;4941825;29;20489;-85
2022/01/16 03:32:11;;;;;;;1116.75;80.07;;;-0.90;99.90;;;;;;4942147;29;20031;-86
2022/01/16 03:34:37;;;;;;;656.13;56.92;;;-0.90;99.90;;;;;;4941171;29;20035;-87
2022/01/16 03:37:04;;;;;;;677.25;58.42;;;-0.90;99.90;;;;;;4947193;28;20011;-88
2022/01/16 03:39:30;;;;;;;1025.65;75.53;;;-0.90;99.90;;;;;;4921328;29;20094;-84
2022/01/16 03:41:58;;;;;;;423.15;43.55;;;-1.00;99.90;;;;;;4939940;29;20039;-85
2022/01/16 03:44:24;;;;;;;488.38;49.28;;;-1.00;99.90;;;;;;4944680;29;20039;-85
2022/01/16 03:46:50;;;;;;;453.02;50.47;;;-0.90;99.90;;;;;;4945622;29;20117;-87
2022/01/16 03:49:19;;;;;;;461.77;49.60;;;-1.00;99.90;;;;;;4940757;29;20383;-86
2022/01/16 03:51:47;;;;;;;325.88;45.78;;;-0.90;99.90;;;;;;4925592;29;20121;-86
2022/01/16 03:54:16;;;;;;;563.13;55.67;;;-0.90;99.90;;;;;;4940995;29;20045;-86
2022/01/16 03:56:42;;;;;;;811.20;79.32;;;-1.00;99.90;;;;;;4940775;29;20039;-86
2022/01/16 03:59:08;;;;;;;531.60;56.38;;;-1.00;99.90;;;;;;4925023;29;20027;-84
2022/01/16 04:01:34;;;;;;;390.80;48.58;;;-1.10;99.90;;;;;;4940945;29;20037;-87
2022/01/16 04:04:00;;;;;;;322.23;48.35;;;-1.10;99.90;;;;;;4941105;29;20547;-85
2022/01/16 04:06:26;;;;;;;383.95;49.90;;;-1.10;99.90;;;;;;4940375;29;20099;-86
2022/01/16 04:08:54;;;;;;;385.98;50.60;;;-1.10;99.90;;;;;;4942107;29;20086;-85
2022/01/16 04:11:25;;;;;;;285.30;48.60;;;-1.20;99.90;;;;;;4941909;29;20027;-85
2022/01/16 04:13:53;;;;;;;238.35;50.35;;;-1.20;99.90;;;;;;4940598;29;20066;-85
2022/01/16 04:16:21;;;;;;;284.17;51.58;;;-1.20;99.90;;;;;;4941639;29;20473;-85
2022/01/16 04:18:51;;;;;;;327.40;53.70;;;-1.20;99.90;;;;;;4942205;29;20028;-86
2022/01/16 04:21:19;;;;;;;294.73;54.87;;;-1.30;99.90;;;;;;4942376;29;20094;-86
2022/01/16 04:23:45;;;;;;;413.33;99.20;;;-1.30;99.90;;;;;;4941147;29;20055;-86
2022/01/16 04:26:10;;;;;;;516.25;64.25;;;-1.30;99.90;;;;;;4941097;29;20027;-85
2022/01/16 04:28:36;;;;;;;233.30;48.92;;;-1.30;99.90;;;;;;4941856;29;20083;-86
2022/01/16 04:31:03;;;;;;;268.60;52.30;;;-1.40;99.90;;;;;;4940547;29;20070;-86
2022/01/16 04:33:29;;;;;;;227.43;47.53;;;-1.40;99.90;;;;;;4941395;29;20070;-86
2022/01/16 04:35:55;;;;;;;216.57;48.15;;;-1.40;99.90;;;;;;4941512;29;20023;-86
2022/01/16 04:38:21;;;;;;;278.95;51.80;;;-1.30;99.90;;;;;;4925767;29;20047;-86
2022/01/16 04:43:47;;;;;;;307.85;53.13;;;-1.30;99.90;;;;;;4941930;29;20066;-86
2022/01/16 04:46:20;;;;;;;229.95;50.58;;;-1.30;99.90;;;;;;4943466;29;20031;-86
2022/01/16 04:48:47;;;;;;;237.48;52.95;;;-1.40;99.90;;;;;;4942638;29;20059;-87
2022/01/16 04:51:13;;;;;;;225.02;51.03;;;-1.40;99.90;;;;;;4954497;28;20012;-88
2022/01/16 04:53:40;;;;;;;234.50;50.83;;;-1.40;99.90;;;;;;4945456;28;20062;-86
2022/01/16 04:56:06;;;;;;;328.65;56.22;;;-1.50;99.90;;;;;;4922440;29;20043;-84
2022/01/16 04:58:33;;;;;;;365.77;57.88;;;-1.50;99.90;;;;;;4939319;29;20107;-85
2022/01/16 05:00:59;;;;;;;409.63;56.38;;;-1.50;99.90;;;;;;4937551;29;20041;-84
2022/01/16 05:03:26;;;;;;;264.95;46.92;;;-1.50;99.90;;;;;;4940615;29;20031;-84
2022/01/16 05:05:53;;;;;;;261.08;54.47;;;-1.50;99.90;;;;;;4923721;29;20547;-84
2022/01/16 05:08:19;;;;;;;282.02;54.10;;;-1.50;99.90;;;;;;4940733;29;20027;-86
2022/01/16 05:10:45;;;;;;;249.30;56.53;;;-1.50;99.90;;;;;;4940036;29;20126;-87
2022/01/16 05:18:39;;;;;;;668.97;73.03;;;-1.60;99.90;;;;;;4941220;29;20038;-86
2022/01/16 05:21:06;;;;;;;475.17;62.25;;;-1.70;99.90;;;;;;4939987;29;20024;-87
2022/01/16 05:23:33;;;;;;;440.98;60.35;;;-1.60;99.90;;;;;;4940266;29;20059;-85
2022/01/16 05:26:00;;;;;;;666.63;72.63;;;-1.60;99.90;;;;;;4943701;29;20032;-85
2022/01/16 05:28:26;;;;;;;379.52;58.22;;;-1.60;99.90;;;;;;4943895;29;20032;-85
2022/01/16 05:30:52;;;;;;;586.47;68.95;;;-1.60;99.90;;;;;;4946930;29;20039;-87
2022/01/16 05:33:17;;;;;;;227.30;51.35;;;-1.60;99.90;;;;;;4946762;29;20045;-85
2022/01/16 05:35:43;;;;;;;537.10;63.78;;;-1.50;99.90;;;;;;4961997;29;20034;-87
2022/01/16 05:38:10;;;;;;;772.95;75.40;;;-1.50;99.90;;;;;;4944748;29;20039;-87
2022/01/16 05:40:36;;;;;;;455.38;60.20;;;-1.60;99.90;;;;;;4944270;29;20477;-87
2022/01/16 05:43:02;;;;;;;399.70;58.78;;;-1.50;99.90;;;;;;4945376;29;20031;-86
2022/01/16 05:45:29;;;;;;;323.65;54.50;;;-1.60;99.90;;;;;;4929856;29;20038;-87
2022/01/16 05:47:55;;;;;;;448.17;60.60;;;-1.50;99.90;;;;;;4957232;29;20475;-86
2022/01/16 05:50:22;;;;;;;595.13;70.43;;;-1.60;99.90;;;;;;4949774;29;20059;-86
2022/01/16 05:52:48;;;;;;;435.77;62.25;;;-1.60;99.90;;;;;;4943242;29;20031;-87
2022/01/16 05:55:14;;;;;;;349.58;55.17;;;-1.70;99.90;;;;;;4954429;28;20015;-88
2022/01/16 05:57:40;;;;;;;487.63;60.58;;;-1.70;99.90;;;;;;4942733;28;20045;-84
2022/01/16 06:00:08;;;;;;;486.85;62.95;;;-1.80;99.90;;;;;;4963594;29;20026;-84
2022/01/16 06:02:34;;;;;;;339.33;51.47;;;-1.90;99.90;;;;;;4945988;29;20019;-88
2022/01/16 06:05:00;;;;;;;487.17;56.10;;;-1.90;99.90;;;;;;4961405;29;20526;-85
2022/01/16 06:07:26;;;;;;;357.23;53.85;;;-1.90;99.90;;;;;;4976384;28;20030;-87
2022/01/16 06:09:52;;;;;;;548.38;56.67;;;-1.90;99.90;;;;;;4959767;28;20035;-85
2022/01/16 06:12:21;;;;;;;631.40;67.80;;;-1.90;99.90;;;;;;4935918;29;20127;-87
2022/01/16 06:14:47;;;;;;;434.65;58.20;;;-1.90;99.90;;;;;;4947264;29;20548;-87
2022/01/16 06:17:13;;;;;;;444.85;54.90;;;-1.90;99.90;;;;;;4915967;29;20039;-86
2022/01/16 06:19:39;;;;;;;575.15;63.63;;;-1.90;99.90;;;;;;4909273;29;20568;-88
2022/01/16 06:22:05;;;;;;;551.05;60.00;;;-1.90;99.90;;;;;;4909352;29;20074;-87
2022/01/16 06:24:31;;;;;;;439.13;53.95;;;-1.80;99.90;;;;;;4926955;29;20032;-86
2022/01/16 06:26:57;;;;;;;470.80;64.25;;;-1.80;99.90;;;;;;4929184;29;20047;-86
2022/01/16 06:29:23;;;;;;;423.17;52.78;;;-1.80;99.90;;;;;;4936981;29;20031;-85
2022/01/16 06:31:48;;;;;;;361.52;49.10;;;-1.80;99.90;;;;;;4929549;29;20035;-86
2022/01/16 06:34:14;;;;;;;278.17;45.92;;;-1.80;99.90;;;;;;4931477;29;20071;-86
2022/01/16 06:36:40;;;;;;;424.38;51.63;;;-1.80;99.90;;;;;;4946646;29;20229;-86
2022/01/16 06:39:10;;;;;;;265.65;43.88;;;-1.80;99.90;;;;;;4948681;28;20031;-86
2022/01/16 06:41:36;;;;;;;602.47;63.83;;;-1.80;99.90;;;;;;4938144;29;20090;-85
2022/01/16 06:44:03;;;;;;;711.67;74.85;;;-1.80;99.90;;;;;;4941182;28;20034;-85
2022/01/16 06:46:29;;;;;;;392.85;51.15;;;-1.90;99.90;;;;;;4943805;28;20461;-87
2022/01/16 06:48:57;;;;;;;445.00;56.03;;;-1.90;99.90;;;;;;4942511;28;20255;-86
2022/01/16 06:51:24;;;;;;;638.08;74.18;;;-1.90;99.90;;;;;;4925475;29;20066;-85
2022/01/16 06:53:57;;;;;;;328.10;51.95;;;-1.90;99.90;;;;;;4939076;29;20032;-86
2022/01/16 06:56:24;;;;;;;537.53;62.00;;;-1.90;99.90;;;;;;4938021;29;20121;-86
2022/01/16 06:58:51;;;;;;;515.85;61.25;;;-1.90;99.90;;;;;;4926223;29;20023;-86
2022/01/16 07:01:17;;;;;;;659.78;66.90;;;-1.90;99.90;;;;;;4941261;28;20053;-85
2022/01/16 07:03:43;;;;;;;759.33;70.53;;;-2.00;99.90;;;;;;4921041;29;20043;-87
2022/01/16 07:06:09;;;;;;;647.15;68.30;;;-2.00;99.90;;;;;;4935324;29;20066;-86
2022/01/16 07:08:35;;;;;;;372.60;51.53;;;-2.10;99.90;;;;;;4944833;29;20035;-84
2022/01/16 07:11:01;;;;;;;563.33;59.22;;;-2.10;99.90;;;;;;4945825;29;20035;-85
2022/01/16 07:13:28;;;;;;;342.42;49.72;;;-2.10;99.90;;;;;;4928589;29;20425;-85
2022/01/16 07:15:54;;;;;;;636.50;59.92;;;-2.10;99.90;;;;;;4946334;29;20523;-86
2022/01/16 07:18:21;;;;;;;714.78;67.13;;;-2.10;99.90;;;;;;4944291;29;20055;-84
2022/01/16 07:20:47;;;;;;;418.13;48.63;;;-2.10;99.90;;;;;;4941703;29;20046;-84
2022/01/16 07:23:14;;;;;;;575.40;61.33;;;-2.00;99.90;;;;;;4929508;29;20616;-85
2022/01/16 07:25:40;;;;;;;681.47;65.82;;;-2.00;99.90;;;;;;4923935;29;20019;-85
2022/01/16 07:28:07;;;;;;;642.75;71.20;;;-2.00;99.90;;;;;;4941043;29;20353;-85
2022/01/16 07:30:33;;;;;;;554.05;60.60;;;-2.10;99.90;;;;;;4953986;29;20499;-85
2022/01/16 07:32:59;;;;;;;504.85;53.97;;;-2.10;99.90;;;;;;4961489;29;20057;-84
2022/01/16 07:35:25;;;;;;;511.55;57.83;;;-2.00;99.90;;;;;;4961479;29;20093;-83
2022/01/16 07:37:52;;;;;;;526.17;57.67;;;-2.00;99.90;;;;;;4943975;29;20118;-85
2022/01/16 07:40:20;;;;;;;499.90;56.97;;;-1.90;99.90;;;;;;4944048;29;20035;-84
2022/01/16 07:42:46;;;;;;;383.77;55.42;;;-2.00;99.90;;;;;;4959134;29;20388;-84
2022/01/16 07:45:12;;;;;;;576.20;63.60;;;-2.00;99.90;;;;;;4944007;29;20055;-86
2022/01/16 07:47:38;;;;;;;362.77;53.97;;;-2.00;99.90;;;;;;4953229;28;20034;-85
2022/01/16 07:50:08;;;;;;;535.90;68.07;;;-2.00;99.90;;;;;;4955384;28;20038;-86
2022/01/16 07:52:34;;;;;;;676.08;72.20;;;-1.90;99.90;;;;;;4960786;28;20038;-85
2022/01/16 07:55:00;;;;;;;386.05;59.03;;;-1.90;99.90;;;;;;4958510;28;20098;-86
2022/01/16 07:57:26;;;;;;;496.15;61.33;;;-2.00;99.90;;;;;;4938962;29;20042;-84
2022/01/16 07:59:52;;;;;;;502.73;57.30;;;-1.90;99.90;;;;;;4961578;29;20043;-86
2022/01/16 08:02:18;;;;;;;426.90;53.47;;;-1.90;99.90;;;;;;4954634;28;20087;-84
2022/01/16 08:04:44;;;;;;;511.05;62.65;;;-1.90;99.90;;;;;;4970667;28;20015;-85
2022/01/16 08:07:10;;;;;;;597.63;64.00;;;-1.90;99.90;;;;;;4980128;28;20042;-85
2022/01/16 08:09:40;;;;;;;675.22;68.15;;;-1.90;99.90;;;;;;4959633;28;20021;-85
2022/01/16 08:12:07;;;;;;;490.25;61.28;;;-1.90;99.90;;;;;;4929599;29;20051;-87
2022/01/16 08:14:33;;;;;;;1077.07;102.20;;;-1.90;99.90;;;;;;4942593;29;20504;-85
2022/01/16 08:17:00;;;;;;;751.88;78.90;;;-1.90;99.90;;;;;;4944484;29;20038;-87
2022/01/16 08:19:27;;;;;;;532.83;61.00;;;-2.00;99.90;;;;;;4951817;29;20075;-85
2022/01/16 08:21:54;;;;;;;663.00;65.88;;;-1.90;99.90;;;;;;4962256;28;20030;-85
2022/01/16 08:24:20;;;;;;;468.45;59.25;;;-1.90;99.90;;;;;;4949187;28;20023;-85
2022/01/16 08:26:46;;;;;;;506.05;59.63;;;-1.90;99.90;;;;;;4964524;28;20029;-85
2022/01/16 08:29:13;;;;;;;773.63;79.72;;;-1.90;99.90;;;;;;4950047;28;20034;-84
2022/01/16 08:31:39;;;;;;;421.75;57.95;;;-1.90;99.90;;;;;;4972422;28;20125;-85
2022/01/16 08:34:05;;;;;;;867.97;76.07;;;-1.90;99.90;;;;;;4966177;28;20038;-85
2022/01/16 08:36:31;;;;;;;778.28;77.80;;;-1.90;99.90;;;;;;4984680;28;20090;-86
2022/01/16 08:38:56;;;;;;;616.08;72.72;;;-2.00;99.90;;;;;;4963483;28;20027;-83
2022/01/16 08:41:24;;;;;;;660.10;69.75;;;-1.90;99.90;;;;;;4949750;29;20094;-86
2022/01/16 08:43:49;;;;;;;481.83;61.50;;;-1.90;99.90;;;;;;4946781;29;20019;-85
2022/01/16 08:46:15;;;;;;;568.35;62.05;;;-1.90;99.90;;;;;;4949359;28;20115;-85
2022/01/16 08:48:41;;;;;;;896.28;84.65;;;-1.90;99.90;;;;;;4956807;28;20051;-84
2022/01/16 08:51:08;;;;;;;818.38;84.72;;;-1.90;99.90;;;;;;4941133;29;20024;-84
2022/01/16 08:53:33;;;;;;;533.20;62.97;;;-1.80;99.90;;;;;;4928406;29;20023;-85
2022/01/16 08:56:00;;;;;;;1040.55;93.38;;;-1.90;99.90;;;;;;4929887;29;20115;-84
2022/01/16 08:58:27;;;;;;;1167.07;106.80;;;-1.90;99.90;;;;;;4930600;29;20046;-85
2022/01/16 09:00:53;;;;;;;870.25;86.18;;;-1.80;99.90;;;;;;4948766;28;20051;-86
2022/01/16 09:03:21;;;;;;;970.58;96.00;;;-1.90;99.90;;;;;;4949570;29;20090;-85
2022/01/16 09:05:47;;;;;;;1078.07;103.78;;;-1.90;99.90;;;;;;4951180;29;20031;-86
2022/01/16 09:08:14;;;;;;;671.70;69.75;;;-1.90;99.90;;;;;;4935252;29;20099;-85
2022/01/16 09:10:41;;;;;;;728.97;73.93;;;-1.80;99.90;;;;;;4950621;29;20031;-86
2022/01/16 09:13:11;;;;;;;444.33;64.07;;;-1.90;99.90;;;;;;4970172;29;20023;-86
2022/01/16 09:15:39;;;;;;;427.02;65.80;;;-1.80;99.90;;;;;;4953942;29;20068;-85
2022/01/16 09:18:05;;;;;;;885.05;96.07;;;-1.80;99.90;;;;;;4951476;29;20027;-86
2022/01/16 09:20:32;;;;;;;646.85;81.78;;;-1.90;99.90;;;;;;4952290;29;20035;-85
2022/01/16 09:22:57;;;;;;;890.53;98.10;;;-1.80;99.90;;;;;;4951392;29;20041;-84
2022/01/16 09:25:23;;;;;;;806.78;88.57;;;-1.90;99.90;;;;;;4950020;29;20051;-87
2022/01/16 09:27:50;;;;;;;646.35;79.03;;;-1.90;99.90;;;;;;4951621;29;20057;-86
2022/01/16 09:30:16;;;;;;;751.05;87.53;;;-1.90;99.90;;;;;;4935732;29;20039;-86
2022/01/16 09:32:42;;;;;;;693.17;84.78;;;-1.90;99.90;;;;;;4933262;29;20428;-86
2022/01/16 09:35:09;;;;;;;594.30;75.38;;;-1.90;99.90;;;;;;4948622;29;20020;-85
2022/01/16 09:37:35;;;;;;;635.90;87.28;;;-1.90;99.90;;;;;;4948392;29;20103;-86
2022/01/16 09:40:03;;;;;;;748.90;91.60;;;-1.90;99.90;;;;;;4947957;29;20393;-87
2022/01/16 09:42:32;;;;;;;811.23;88.70;;;-1.90;99.90;;;;;;4949854;29;20083;-87
2022/01/16 09:44:58;;;;;;;631.95;84.40;;;-1.90;99.90;;;;;;4934194;29;20362;-87
2022/01/16 09:47:24;;;;;;;821.47;89.85;;;-1.90;99.90;;;;;;4950620;29;20039;-87
2022/01/16 09:49:50;;;;;;;617.15;81.53;;;-1.80;99.90;;;;;;4948678;29;20151;-86
2022/01/16 09:52:16;;;;;;;529.70;74.95;;;-1.90;99.90;;;;;;4947409;29;20032;-86
2022/01/16 09:54:42;;;;;;;221.05;59.85;;;-1.80;99.90;;;;;;4949352;29;20043;-86
2022/01/16 09:57:12;;;;;;;213.60;55.97;;;-1.80;99.90;;;;;;4947984;29;20027;-87
2022/01/16 09:59:38;;;;;;;234.88;59.60;;;-1.80;99.90;;;;;;4950748;29;20031;-86
2022/01/16 10:02:05;;;;;;;251.23;54.95;;;-1.70;99.90;;;;;;4958234;28;20063;-86
2022/01/16 10:04:35;;;;;;;204.05;50.97;;;-1.70;99.90;;;;;;4951521;28;20035;-87
2022/01/16 10:07:08;;;;;;;218.10;53.35;;;-1.70;99.90;;;;;;4933747;29;20450;-87
2022/01/16 10:09:38;;;;;;;227.32;53.60;;;-1.70;99.90;;;;;;4950793;29;20043;-87
2022/01/16 10:12:14;;;;;;;213.03;50.57;;;-1.70;99.90;;;;;;4932968;29;20050;-88
2022/01/16 10:14:48;;;;;;;207.68;49.92;;;-1.60;99.90;;;;;;4947109;29;20031;-86
2022/01/16 10:17:19;;;;;;;233.95;52.58;;;-1.60;99.90;;;;;;4946405;29;20043;-87
2022/01/16 10:19:45;;;;;;;294.38;58.58;;;-1.70;99.90;;;;;;4945025;29;20054;-86
2022/01/16 10:22:13;;;;;;;306.73;60.60;;;-1.60;99.90;;;;;;4943029;29;20049;-85
2022/01/16 10:24:40;;;;;;;438.77;63.10;;;-1.70;99.90;;;;;;4945165;29;20384;-84
2022/01/16 10:27:09;;;;;;;231.43;55.45;;;-1.70;99.90;;;;;;4944784;29;20059;-85
2022/01/16 10:29:37;;;;;;;262.58;53.95;;;-1.70;99.90;;;;;;4928950;29;20058;-84
2022/01/16 10:32:28;;;;;;;208.88;54.92;;;-1.60;99.90;;;;;;4945151;29;20069;-84
2022/01/16 10:35:10;;;;;;;255.52;56.33;;;-1.60;99.90;;;;;;4945623;29;20023;-87
2022/01/16 10:37:37;;;;;;;249.65;58.92;;;-1.60;99.90;;;;;;4946204;29;20039;-86
2022/01/16 10:40:16;;;;;;;322.85;56.58;;;-1.60;99.90;;;;;;4948594;29;20116;-85
2022/01/16 10:42:57;;;;;;;258.95;55.42;;;-1.60;99.90;;;;;;4934527;29;20138;-85
2022/01/16 10:45:31;;;;;;;534.83;74.43;;;-1.60;99.90;;;;;;4934588;29;20031;-86
2022/01/16 10:47:59;;;;;;;326.00;54.92;;;-1.60;99.90;;;;;;4933777;29;20036;-87
2022/01/16 10:50:33;;;;;;;494.95;68.32;;;-1.70;99.90;;;;;;4950323;29;20421;-85
2022/01/16 10:53:16;;;;;;;426.90;67.30;;;-1.70;99.90;;;;;;4956962;29;20038;-87
2022/01/16 10:55:51;;;;;;;231.63;55.22;;;-1.70;99.90;;;;;;4951642;29;20043;-86
2022/01/16 10:58:29;;;;;;;210.90;49.47;;;-1.70;99.90;;;;;;4953626;29;20531;-86
2022/01/16 11:01:05;;;;;;;318.73;52.75;;;-1.60;99.90;;;;;;4973921;28;20142;-88
2022/01/16 11:03:41;;;;;;;223.93;56.47;;;-1.60;99.90;;;;;;4948724;29;20171;-86
2022/01/16 11:06:07;;;;;;;273.13;54.15;;;-1.60;99.90;;;;;;4932836;29;20032;-87
2022/01/16 11:08:35;;;;;;;295.98;59.75;;;-1.60;99.90;;;;;;4948282;29;20028;-84
2022/01/16 11:11:01;;;;;;;350.80;62.28;;;-1.60;99.90;;;;;;4934011;29;20035;-87
2022/01/16 11:13:30;;;;;;;360.30;63.13;;;-1.60;99.90;;;;;;4947365;29;20028;-88
2022/01/16 11:16:07;;;;;;;501.20;68.18;;;-1.60;99.90;;;;;;4933384;29;20031;-87
2022/01/16 11:18:40;;;;;;;322.58;60.88;;;-1.60;99.90;;;;;;4949915;29;20059;-87
2022/01/16 11:26:17;;;;;;;333.42;60.58;;;-1.60;99.90;;;;;;4947139;29;20031;-87
2022/01/16 11:28:43;;;;;;;482.05;65.55;;;-1.60;99.90;;;;;;4946782;29;20497;-87
2022/01/16 11:31:12;;;;;;;386.48;64.60;;;-1.50;99.90;;;;;;4969157;29;20039;-86
2022/01/16 11:33:39;;;;;;;366.13;60.22;;;-1.50;99.90;;;;;;4931921;29;20045;-87
2022/01/16 11:36:15;;;;;;;278.85;58.55;;;-1.40;99.90;;;;;;4933130;29;20035;-87
2022/01/16 11:38:42;;;;;;;460.77;70.88;;;-1.30;99.90;;;;;;4947693;29;20054;-88
2022/01/16 11:41:23;;;;;;;481.90;68.90;;;-1.30;99.90;;;;;;4933375;29;20125;-87
2022/01/16 11:43:54;;;;;;;;;;;-1.30;99.90;;;;;;4965486;29;20031;-85
2022/01/16 11:46:19;;;;;;;276.90;62.67;;;-1.30;99.90;;;;;;4932213;29;19942;-86
2022/01/16 11:49:07;;;;;;;341.83;60.88;;;-1.10;99.90;;;;;;4933501;29;20034;-87
2022/01/16 11:51:32;;;;;;;223.00;57.97;;;-1.10;99.90;;;;;;4947521;29;20074;-86
2022/01/16 11:54:01;;;;;;;305.67;63.15;;;-1.10;99.90;;;;;;4931815;29;20030;-85
2022/01/16 11:56:41;;;;;;;467.73;75.60;;;-1.30;99.90;;;;;;4930831;29;20031;-87
2022/01/16 11:59:13;;;;;;;470.20;66.18;;;-1.30;99.90;;;;;;4930249;29;20052;-86
2022/01/16 12:01:43;;;;;;;241.23;58.22;;;-1.30;99.90;;;;;;4934114;29;20042;-88
2022/01/16 12:04:30;;;;;;;320.50;62.85;;;-1.30;99.90;;;;;;4931309;29;20046;-86
2022/01/16 12:07:07;;;;;;;339.90;61.80;;;-1.20;99.90;;;;;;4932769;29;20031;-85
2022/01/16 12:09:37;;;;;;;220.02;60.55;;;-1.20;99.90;;;;;;4933446;29;20031;-86
2022/01/16 12:12:23;;;;;;;270.67;59.10;;;-1.20;99.90;;;;;;4931305;29;20054;-86
2022/01/16 12:14:50;;;;;;;200.93;57.70;;;-1.10;99.90;;;;;;4932530;29;20126;-86
2022/01/16 12:17:32;;;;;;;265.27;62.63;;;-1.10;99.90;;;;;;4931171;29;20039;-85
2022/01/16 12:20:13;;;;;;;232.38;62.90;;;-1.10;99.90;;;;;;4948661;29;20091;-88
2022/01/16 12:22:53;;;;;;;212.50;55.78;;;-1.10;99.90;;;;;;4931401;29;20027;-85
2022/01/16 12:25:22;;;;;;;225.95;54.60;;;-1.10;99.90;;;;;;4947097;29;20122;-86
2022/01/16 12:27:51;;;;;;;218.60;54.83;;;-1.20;99.90;;;;;;4930912;29;20023;-89
2022/01/16 12:30:35;;;;;;;217.82;54.28;;;-1.20;99.90;;;;;;4947001;29;20041;-87
2022/01/16 12:33:16;;;;;;;268.48;58.42;;;-1.10;99.90;;;;;;4947520;29;20094;-88
2022/01/16 12:35:46;;;;;;;283.33;56.92;;;-1.10;99.90;;;;;;4932134;29;20046;-89
2022/01/16 12:38:22;;;;;;;197.90;56.78;;;-1.10;99.90;;;;;;4933628;29;20042;-87
2022/01/16 12:41:09;;;;;;;290.35;56.28;;;-1.10;99.90;;;;;;4954270;28;20104;-88
2022/01/16 12:43:45;;;;;;;205.48;51.90;;;-1.10;99.90;;;;;;4950047;28;20035;-86
2022/01/16 12:46:15;;;;;;;292.23;60.25;;;-1.00;99.90;;;;;;4945364;29;20039;-88
2022/01/16 12:48:47;;;;;;;389.85;67.68;;;-0.90;99.90;;;;;;4947108;29;20087;-88
2022/01/16 12:51:15;;;;;;;217.27;55.28;;;-0.90;99.90;;;;;;4930023;29;20035;-87
2022/01/16 12:53:47;;;;;;;208.00;53.20;;;-0.90;99.90;;;;;;4944133;29;20035;-85
2022/01/16 12:56:25;;;;;;;336.70;59.97;;;-0.90;99.90;;;;;;4928995;29;20035;-87
2022/01/16 12:59:15;;;;;;;219.13;57.75;;;-0.90;99.90;;;;;;4952496;29;20036;-85
2022/01/16 13:01:53;;;;;;;237.50;59.90;;;-0.80;99.90;;;;;;4980168;28;20093;-86
2022/01/16 13:04:27;;;;;;;206.45;59.42;;;-0.80;99.90;;;;;;4932622;29;20047;-87
2022/01/16 13:06:56;;;;;;;229.55;55.45;;;-0.80;99.90;;;;;;4949981;29;20115;-86
2022/01/16 13:09:23;;;;;;;339.17;59.55;;;-0.70;99.90;;;;;;4950746;29;20027;-87
2022/01/16 13:11:51;;;;;;;203.95;54.60;;;-0.80;99.90;;;;;;4950811;29;20038;-85
2022/01/16 13:14:25;;;;;;;196.45;59.70;;;-0.90;99.90;;;;;;4948690;29;20058;-86